createdAt,value
2022-12-11T00:00:58.886Z,30.03
2022-12-11T00:03:27.394Z,34.50
2022-12-11T00:05:55.750Z,35.67
2022-12-11T00:08:24.167Z,34.33
2022-12-11T00:10:52.517Z,32.07
2022-12-11T00:13:21.022Z,37.13
2022-12-11T00:15:50.784Z,43.97
2022-12-11T00:18:19.149Z,41.10
2022-12-11T00:20:47.231Z,38.73
2022-12-11T00:23:15.609Z,39.97
2022-12-11T00:25:45.197Z,30.43
2022-12-11T00:28:13.843Z,36.57
2022-12-11T00:30:42.759Z,36.70
2022-12-11T00:33:12.791Z,32.77
2022-12-11T00:35:41.503Z,44.97
2022-12-11T00:38:10.138Z,57.97
2022-12-11T00:40:38.952Z,42.07
2022-12-11T00:43:07.979Z,34.77
2022-12-11T00:45:38.144Z,33.40
2022-12-11T00:48:07.086Z,49.63
2022-12-11T00:50:36.951Z,41.37
2022-12-11T00:53:05.686Z,47.20
2022-12-11T00:55:38.061Z,50.90
2022-12-11T00:58:06.631Z,48.67
2022-12-11T01:00:35.460Z,50.83
2022-12-11T01:03:03.906Z,38.43
2022-12-11T01:05:32.353Z,49.57
2022-12-11T01:08:02.183Z,35.87
2022-12-11T01:10:30.648Z,39.50
2022-12-11T01:13:00.264Z,47.73
2022-12-11T01:15:29.996Z,44.03
2022-12-11T01:17:58.814Z,44.33
2022-12-11T01:20:28.209Z,41.97
2022-12-11T01:22:56.919Z,39.07
2022-12-11T01:25:26.686Z,43.83
2022-12-11T01:27:55.908Z,53.83
2022-12-11T01:30:25.163Z,48.87
2022-12-11T01:32:53.901Z,43.10
2022-12-11T01:35:22.434Z,53.57
2022-12-11T01:37:50.983Z,49.80
2022-12-11T01:40:21.131Z,51.40
2022-12-11T01:42:50.848Z,48.37
2022-12-11T01:45:27.941Z,51.67
2022-12-11T01:47:58.392Z,45.77
2022-12-11T01:50:26.907Z,48.93
2022-12-11T01:52:55.326Z,39.23
2022-12-11T01:55:23.703Z,43.77
2022-12-11T01:57:54.677Z,44.17
2022-12-11T02:00:23.441Z,46.90
2022-12-11T02:02:51.917Z,61.13
2022-12-11T02:05:20.408Z,64.27
2022-12-11T02:07:51.715Z,62.47
2022-12-11T02:10:20.221Z,47.47
2022-12-11T02:12:54.644Z,49.47
2022-12-11T02:15:27.170Z,39.93
2022-12-11T02:17:58.814Z,51.17
2022-12-11T02:20:29.971Z,44.77
2022-12-11T02:23:07.839Z,51.57
2022-12-11T02:25:38.921Z,67.43
2022-12-11T02:28:19.172Z,52.87
2022-12-11T02:30:49.334Z,66.20
2022-12-11T02:33:18.338Z,53.43
2022-12-11T02:35:47.732Z,61.73
2022-12-11T02:38:18.618Z,62.83
2022-12-11T02:40:48.709Z,63.37
2022-12-11T02:43:19.395Z,59.57
2022-12-11T02:45:48.821Z,73.00
2022-12-11T02:48:18.413Z,59.67
2022-12-11T02:50:48.154Z,67.93
2022-12-11T02:53:19.016Z,57.43
2022-12-11T02:55:48.080Z,62.73
2022-12-11T02:58:19.980Z,58.37
2022-12-11T03:00:48.582Z,56.27
2022-12-11T03:03:17.032Z,58.33
2022-12-11T03:05:46.406Z,48.87
2022-12-11T03:08:17.546Z,45.93
2022-12-11T03:10:46.150Z,42.47
2022-12-11T03:13:15.522Z,48.13
2022-12-11T03:15:50.371Z,54.77
2022-12-11T03:18:23.901Z,32.50
2022-12-11T03:20:56.926Z,40.93
2022-12-11T03:23:30.190Z,40.10
2022-12-11T03:26:00.383Z,43.97
2022-12-11T03:28:31.140Z,39.07
2022-12-11T03:31:05.653Z,38.80
2022-12-11T03:33:36.095Z,42.20
2022-12-11T03:36:07.093Z,39.70
2022-12-11T03:38:38.358Z,40.23
2022-12-11T03:41:07.434Z,31.70
2022-12-11T03:43:36.087Z,39.50
2022-12-11T03:46:06.961Z,40.73
2022-12-11T03:48:37.991Z,31.10
2022-12-11T03:51:07.918Z,40.77
2022-12-11T03:53:37.144Z,33.23
2022-12-11T03:56:06.004Z,41.77
2022-12-11T03:58:34.445Z,36.73
2022-12-11T04:01:02.890Z,30.07
2022-12-11T04:03:32.652Z,44.83
2022-12-11T04:06:01.199Z,28.97
2022-12-11T04:08:29.606Z,29.77
2022-12-11T04:11:11.879Z,38.93
2022-12-11T04:13:40.828Z,34.00
2022-12-11T04:16:08.765Z,34.57
2022-12-11T04:18:56.066Z,39.00
2022-12-11T04:21:41.942Z,29.93
2022-12-11T04:24:17.162Z,29.70
2022-12-11T04:26:45.954Z,31.43
2022-12-11T04:29:14.336Z,33.43
2022-12-11T04:31:42.749Z,35.10
2022-12-11T04:34:12.638Z,27.03
2022-12-11T04:36:41.144Z,37.17
2022-12-11T04:39:09.524Z,30.13
2022-12-11T04:41:38.989Z,30.10
2022-12-11T04:44:07.402Z,32.83
2022-12-11T04:46:36.232Z,30.30
2022-12-11T04:49:04.718Z,35.80
2022-12-11T04:51:34.531Z,36.77
2022-12-11T04:54:02.859Z,29.83
2022-12-11T04:56:31.325Z,32.27
2022-12-11T04:58:59.721Z,32.70
2022-12-11T05:01:28.333Z,37.23
2022-12-11T05:03:56.683Z,33.77
2022-12-11T05:06:25.436Z,30.43
2022-12-11T05:08:55.238Z,41.03
2022-12-11T05:11:23.632Z,39.37
2022-12-11T05:13:51.981Z,33.03
2022-12-11T05:16:20.533Z,38.10
2022-12-11T05:18:48.989Z,32.07
2022-12-11T05:21:17.444Z,42.33
2022-12-11T05:23:45.959Z,38.13
2022-12-11T05:26:17.122Z,41.70
2022-12-11T05:28:45.980Z,44.13
2022-12-11T05:31:15.710Z,34.47
2022-12-11T05:33:44.285Z,38.30
2022-12-11T05:36:15.535Z,41.20
2022-12-11T05:38:43.908Z,53.87
2022-12-11T05:41:14.467Z,42.10
2022-12-11T05:43:44.276Z,54.17
2022-12-11T05:46:13.388Z,51.80
2022-12-11T05:48:42.375Z,51.67
2022-12-11T05:51:11.267Z,57.73
2022-12-11T05:53:39.847Z,48.77
2022-12-11T05:56:09.313Z,44.77
2022-12-11T05:58:37.696Z,45.47
2022-12-11T06:01:11.156Z,46.07
2022-12-11T06:03:39.806Z,47.60
2022-12-11T06:06:09.069Z,59.77
2022-12-11T06:08:37.421Z,45.40
2022-12-11T06:11:06.452Z,52.90
2022-12-11T06:13:35.417Z,45.90
2022-12-11T06:16:04.306Z,44.30
2022-12-11T06:18:36.953Z,45.47
2022-12-11T06:21:12.430Z,77.93
2022-12-11T06:23:41.429Z,48.20
2022-12-11T06:26:10.200Z,62.27
2022-12-11T06:28:38.668Z,54.23
2022-12-11T06:31:08.125Z,48.67
2022-12-11T06:33:37.666Z,47.07
2022-12-11T06:36:06.560Z,44.50
2022-12-11T06:38:35.027Z,61.77
2022-12-11T06:41:04.885Z,47.23
2022-12-11T06:43:33.447Z,58.00
2022-12-11T06:46:04.024Z,48.57
2022-12-11T06:48:32.848Z,55.73
2022-12-11T06:51:06.434Z,51.93
2022-12-11T06:53:34.883Z,44.77
2022-12-11T06:56:06.895Z,66.43
2022-12-11T06:58:36.637Z,70.13
2022-12-11T07:01:05.737Z,48.23
2022-12-11T07:03:34.292Z,58.07
2022-12-11T07:06:04.683Z,45.83
2022-12-11T07:08:33.784Z,35.60
2022-12-11T07:11:04.839Z,32.27
2022-12-11T07:13:33.754Z,37.00
2022-12-11T07:16:02.325Z,50.63
2022-12-11T07:18:30.866Z,49.47
2022-12-11T07:21:00.427Z,47.27
2022-12-11T07:23:30.572Z,37.70
2022-12-11T07:25:58.995Z,46.70
2022-12-11T07:28:27.460Z,42.57
2022-12-11T07:30:55.799Z,38.27
2022-12-11T07:33:24.110Z,44.03
2022-12-11T07:35:52.556Z,51.07
2022-12-11T07:38:20.933Z,28.00
2022-12-11T07:40:50.663Z,47.53
2022-12-11T07:43:19.021Z,41.80
2022-12-11T07:45:47.495Z,38.43
2022-12-11T07:48:15.891Z,41.77
2022-12-11T07:50:44.228Z,34.73
2022-12-11T07:53:12.576Z,45.60
2022-12-11T07:55:40.930Z,38.80
2022-12-11T07:58:10.798Z,33.73
2022-12-11T08:00:39.110Z,37.77
2022-12-11T08:03:07.471Z,28.37
2022-12-11T08:05:35.840Z,35.60
2022-12-11T08:08:04.260Z,34.50
2022-12-11T08:10:32.739Z,41.83
2022-12-11T08:13:01.104Z,29.13
2022-12-11T08:15:30.860Z,40.47
2022-12-11T08:17:59.257Z,39.07
2022-12-11T08:20:27.673Z,33.70
2022-12-11T08:22:59.179Z,47.47
2022-12-11T08:25:27.941Z,46.77
2022-12-11T08:27:56.267Z,37.50
2022-12-11T08:30:25.031Z,44.80
2022-12-11T08:32:54.768Z,40.07
2022-12-11T08:35:23.269Z,40.00
2022-12-11T08:37:51.644Z,38.20
2022-12-11T08:40:20.349Z,52.17
2022-12-11T08:42:48.757Z,34.93
2022-12-11T08:45:16.998Z,36.07
2022-12-11T08:47:45.444Z,38.03
2022-12-11T08:50:15.340Z,45.03
2022-12-11T08:52:43.801Z,38.50
2022-12-11T08:55:13.116Z,38.13
2022-12-11T08:57:42.009Z,32.33
2022-12-11T09:00:12.405Z,35.57
2022-12-11T09:02:40.915Z,37.67
2022-12-11T09:05:10.467Z,35.23
2022-12-11T09:07:40.390Z,42.93
2022-12-11T09:10:10.511Z,35.27
2022-12-11T09:12:39.006Z,45.67
2022-12-11T09:15:07.904Z,35.50
2022-12-11T09:17:36.381Z,42.13
2022-12-11T09:20:05.086Z,37.60
2022-12-11T09:22:34.251Z,37.87
2022-12-11T09:25:03.942Z,33.70
2022-12-11T09:27:32.332Z,41.67
2022-12-11T09:30:00.713Z,50.90
2022-12-11T09:32:29.067Z,47.47
2022-12-11T09:34:57.548Z,50.27
2022-12-11T09:37:25.855Z,40.30
2022-12-11T09:39:54.207Z,37.97
2022-12-11T09:42:28.683Z,34.33
2022-12-11T09:44:59.093Z,33.57
2022-12-11T09:47:31.407Z,47.70
2022-12-11T09:50:04.559Z,48.97
2022-12-11T09:52:34.550Z,54.90
2022-12-11T09:55:04.330Z,40.00
2022-12-11T09:57:47.336Z,53.47
2022-12-11T10:00:18.394Z,31.50
2022-12-11T10:02:52.846Z,35.17
2022-12-11T10:05:24.342Z,31.97
2022-12-11T10:07:54.584Z,32.67
2022-12-11T10:10:27.476Z,37.83
2022-12-11T10:13:01.154Z,25.57
2022-12-11T10:15:33.039Z,21.80
2022-12-11T10:18:05.185Z,31.63
2022-12-11T10:20:36.527Z,30.47
2022-12-11T10:23:05.751Z,26.67
2022-12-11T10:25:36.233Z,32.03
2022-12-11T10:28:13.603Z,25.30
2022-12-11T10:30:45.912Z,36.80
2022-12-11T10:33:20.122Z,22.60
2022-12-11T10:35:50.606Z,34.20
2022-12-11T10:38:22.107Z,35.10
2022-12-11T10:40:52.379Z,21.97
2022-12-11T10:43:22.266Z,25.10
2022-12-11T10:45:54.788Z,26.20
2022-12-11T10:48:23.721Z,31.07
2022-12-11T10:50:59.714Z,25.90
2022-12-11T10:53:29.096Z,21.17
2022-12-11T10:55:59.109Z,36.90
2022-12-11T10:58:33.980Z,28.93
2022-12-11T11:01:05.735Z,38.80
2022-12-11T11:03:34.685Z,43.93
2022-12-11T11:06:07.674Z,36.60
2022-12-11T11:08:44.151Z,37.97
2022-12-11T11:11:21.805Z,39.87
2022-12-11T11:13:51.794Z,32.03
2022-12-11T11:16:22.439Z,37.33
2022-12-11T11:18:52.684Z,38.03
2022-12-11T11:21:22.015Z,35.00
2022-12-11T11:23:53.563Z,43.53
2022-12-11T11:26:23.126Z,35.80
2022-12-11T11:28:54.213Z,33.73
2022-12-11T11:31:23.416Z,42.20
2022-12-11T11:33:56.897Z,43.10
2022-12-11T11:36:26.318Z,39.43
2022-12-11T11:39:04.739Z,28.77
2022-12-11T11:41:36.155Z,50.10
2022-12-11T11:44:07.513Z,33.90
2022-12-11T11:46:39.192Z,32.90
2022-12-11T11:49:10.066Z,43.20
2022-12-11T11:51:40.844Z,30.07
2022-12-11T11:54:13.279Z,35.87
2022-12-11T11:56:41.825Z,31.47
2022-12-11T11:59:15.389Z,33.63
2022-12-11T12:01:44.176Z,42.00
2022-12-11T12:04:13.169Z,31.17
2022-12-11T12:06:50.558Z,29.93
2022-12-11T12:09:29.272Z,28.93
2022-12-11T12:12:02.051Z,31.10
2022-12-11T12:17:26.677Z,30.93
2022-12-11T12:20:05.229Z,30.43
2022-12-11T12:22:41.148Z,29.10
2022-12-11T12:25:17.627Z,31.40
2022-12-11T12:27:52.839Z,31.17
2022-12-11T12:30:23.999Z,31.63
2022-12-11T12:33:09.151Z,25.70
2022-12-11T12:35:38.519Z,29.67
2022-12-11T12:38:14.583Z,37.90
2022-12-11T12:40:49.740Z,39.23
2022-12-11T12:43:32.358Z,33.50
2022-12-11T12:46:06.057Z,28.67
2022-12-11T12:48:34.499Z,28.77
2022-12-11T12:51:03.230Z,30.50
2022-12-11T12:53:34.170Z,23.03
2022-12-11T12:56:03.629Z,19.87
2022-12-11T12:58:32.529Z,16.47
2022-12-11T13:01:10.584Z,19.33
2022-12-11T13:03:40.006Z,26.87
2022-12-11T13:06:10.270Z,18.80
2022-12-11T13:08:41.124Z,15.83
2022-12-11T13:11:10.687Z,16.83
2022-12-11T13:13:40.091Z,13.13
2022-12-11T13:16:26.913Z,17.67
2022-12-11T13:18:55.513Z,21.97
2022-12-11T13:21:31.530Z,13.97
2022-12-11T13:24:15.518Z,12.53
2022-12-11T13:26:44.419Z,12.30
2022-12-11T13:29:27.631Z,12.63
2022-12-11T13:32:00.963Z,14.63
2022-12-11T13:34:31.046Z,14.93
2022-12-11T13:36:59.935Z,15.90
2022-12-11T13:39:29.605Z,15.43
2022-12-11T13:41:59.973Z,19.23
2022-12-11T13:44:29.505Z,14.43
2022-12-11T13:47:00.877Z,14.40
2022-12-11T13:49:31.366Z,10.13
2022-12-11T13:52:01.154Z,13.87
2022-12-11T13:54:32.345Z,14.13
2022-12-11T13:57:02.921Z,12.03
2022-12-11T13:59:33.091Z,15.37
2022-12-11T14:02:06.576Z,18.87
2022-12-11T14:04:35.928Z,16.87
2022-12-11T14:07:04.921Z,16.90
2022-12-11T14:09:34.238Z,20.93
2022-12-11T14:12:02.691Z,20.77
2022-12-11T14:14:36.628Z,13.53
2022-12-11T14:17:06.455Z,11.87
2022-12-11T14:19:35.080Z,12.13
2022-12-11T14:22:04.757Z,14.33
2022-12-11T14:24:33.811Z,11.57
2022-12-11T14:27:04.748Z,17.10
2022-12-11T14:29:34.378Z,13.27
2022-12-11T14:32:04.368Z,16.10
2022-12-11T14:34:36.876Z,12.10
2022-12-11T14:37:07.314Z,12.80
2022-12-11T14:39:39.611Z,13.07
2022-12-11T14:42:10.152Z,12.63
2022-12-11T14:44:42.060Z,12.50
2022-12-11T14:47:13.847Z,16.70
2022-12-11T14:49:44.855Z,23.67
2022-12-11T14:52:17.298Z,13.50
2022-12-11T14:54:47.498Z,13.30
2022-12-11T14:57:20.223Z,9.50
2022-12-11T14:59:50.035Z,12.67
2022-12-11T15:02:30.120Z,13.67
2022-12-11T15:05:04.134Z,16.33
2022-12-11T15:07:32.890Z,14.27
2022-12-11T15:10:01.225Z,10.40
2022-12-11T15:12:29.709Z,10.77
2022-12-11T15:14:59.286Z,18.80
2022-12-11T15:17:28.186Z,13.77
2022-12-11T15:19:57.778Z,9.63
2022-12-11T15:22:29.322Z,12.90
2022-12-11T15:24:57.654Z,10.17
2022-12-11T15:27:27.468Z,13.37
2022-12-11T15:29:56.836Z,10.47
2022-12-11T15:32:25.251Z,10.73
2022-12-11T15:34:54.483Z,14.50
2022-12-11T15:37:24.946Z,12.13
2022-12-11T15:39:55.437Z,17.27
2022-12-11T15:42:26.238Z,12.53
2022-12-11T15:44:55.358Z,13.23
2022-12-11T15:47:24.869Z,13.30
2022-12-11T15:49:55.781Z,12.60
2022-12-11T15:52:24.123Z,11.63
2022-12-11T15:54:52.471Z,9.70
2022-12-11T15:57:23.098Z,13.90
2022-12-11T15:59:52.644Z,7.80
2022-12-11T16:02:21.067Z,12.80
2022-12-11T16:04:49.499Z,10.60
2022-12-11T16:07:18.836Z,13.57
2022-12-11T16:09:47.572Z,8.50
2022-12-11T16:12:16.309Z,9.40
2022-12-11T16:14:46.724Z,12.83
2022-12-11T16:17:15.782Z,9.67
2022-12-11T16:19:44.661Z,10.40
2022-12-11T16:22:13.726Z,10.27
2022-12-11T16:24:42.237Z,12.47
2022-12-11T16:27:10.897Z,14.77
2022-12-11T16:29:40.094Z,16.10
2022-12-11T16:32:10.148Z,16.40
2022-12-11T16:34:39.298Z,11.30
2022-12-11T16:37:08.442Z,13.30
2022-12-11T16:39:38.065Z,13.47
2022-12-11T16:42:06.852Z,19.93
2022-12-11T16:44:39.520Z,10.20
2022-12-11T16:47:12.448Z,14.90
2022-12-11T16:49:41.240Z,11.67
2022-12-11T16:52:09.826Z,15.90
2022-12-11T16:54:38.290Z,13.77
2022-12-11T16:57:06.765Z,10.87
2022-12-11T16:59:37.366Z,11.67
2022-12-11T17:02:06.553Z,11.60
2022-12-11T17:04:36.278Z,12.70
2022-12-11T17:07:05.029Z,12.50
2022-12-11T17:09:33.840Z,11.07
2022-12-11T17:12:02.460Z,17.50
2022-12-11T17:14:31.098Z,19.30
2022-12-11T17:16:59.447Z,13.53
2022-12-11T17:19:27.923Z,17.33
2022-12-11T17:21:59.048Z,16.63
2022-12-11T17:24:27.508Z,12.43
2022-12-11T17:26:56.502Z,14.37
2022-12-11T17:29:24.851Z,21.97
2022-12-11T17:31:53.699Z,14.57
2022-12-11T17:34:22.012Z,16.40
2022-12-11T17:36:51.408Z,22.20
2022-12-11T17:39:21.132Z,14.33
2022-12-11T17:41:49.710Z,15.37
2022-12-11T17:44:18.073Z,15.80
2022-12-11T17:46:46.840Z,13.53
2022-12-11T17:49:15.333Z,19.47
2022-12-11T17:51:43.700Z,16.33
2022-12-11T17:54:12.099Z,15.77
2022-12-11T17:56:41.606Z,18.10
2022-12-11T17:59:10.006Z,19.87
2022-12-11T18:01:38.422Z,17.47
2022-12-11T18:04:07.006Z,23.00
2022-12-11T18:06:35.510Z,16.87
2022-12-11T18:09:04.041Z,18.70
2022-12-11T18:11:32.743Z,15.67
2022-12-11T18:14:02.816Z,17.07
2022-12-11T18:16:32.617Z,19.83
2022-12-11T18:19:01.416Z,21.43
2022-12-11T18:21:32.007Z,20.43
2022-12-11T18:24:00.497Z,21.80
2022-12-11T18:26:29.278Z,23.53
2022-12-11T18:28:57.698Z,20.47
2022-12-11T18:31:27.647Z,24.27
2022-12-11T18:33:56.174Z,31.83
2022-12-11T18:36:24.599Z,25.30
2022-12-11T18:38:52.960Z,27.53
2022-12-11T18:41:21.617Z,30.50
2022-12-11T18:43:49.919Z,29.17
2022-12-11T18:46:19.200Z,24.57
2022-12-11T18:48:49.751Z,28.20
2022-12-11T18:51:19.894Z,21.83
2022-12-11T18:53:48.699Z,32.27
2022-12-11T18:56:18.458Z,25.87
2022-12-11T18:58:46.939Z,28.97
2022-12-11T19:01:17.884Z,25.53
2022-12-11T19:03:46.195Z,22.43
2022-12-11T19:06:17.204Z,22.27
2022-12-11T19:08:45.743Z,26.87
2022-12-11T19:11:15.891Z,26.93
2022-12-11T19:13:44.330Z,33.27
2022-12-11T19:16:17.512Z,30.23
2022-12-11T19:18:46.048Z,22.17
2022-12-11T19:21:16.640Z,28.07
2022-12-11T19:23:45.657Z,31.40
2022-12-11T19:26:14.424Z,27.20
2022-12-11T19:28:43.215Z,26.33
2022-12-11T19:31:12.258Z,38.47
2022-12-11T19:33:41.147Z,24.67
2022-12-11T19:36:10.394Z,24.83
2022-12-11T19:38:40.867Z,31.87
2022-12-11T19:41:10.309Z,32.30
2022-12-11T19:43:38.819Z,29.90
2022-12-11T19:46:08.203Z,34.20
2022-12-11T19:48:37.669Z,31.27
2022-12-11T19:51:06.920Z,40.77
2022-12-11T19:53:35.717Z,40.03
2022-12-11T19:56:05.826Z,28.07
2022-12-11T19:58:34.514Z,27.17
2022-12-11T20:01:03.034Z,33.63
2022-12-11T20:03:31.754Z,32.53
2022-12-11T20:06:03.439Z,35.43
2022-12-11T20:08:47.513Z,32.37
2022-12-11T20:11:18.877Z,40.40
2022-12-11T20:13:47.683Z,31.33
2022-12-11T20:16:16.869Z,37.37
2022-12-11T20:18:45.715Z,35.07
2022-12-11T20:21:15.437Z,28.73
2022-12-11T20:23:44.123Z,41.13
2022-12-11T20:26:13.569Z,28.07
2022-12-11T20:28:43.014Z,29.13
2022-12-11T20:31:18.105Z,35.37
2022-12-11T20:33:49.633Z,25.53
2022-12-11T20:36:18.632Z,31.20
2022-12-11T20:38:47.011Z,32.13
2022-12-11T20:41:16.284Z,30.83
2022-12-11T20:43:47.039Z,35.00
2022-12-11T20:46:16.305Z,37.30
2022-12-11T20:48:45.307Z,37.03
2022-12-11T20:51:14.447Z,42.67
2022-12-11T20:53:43.501Z,31.83
2022-12-11T20:56:12.603Z,27.10
2022-12-11T20:58:41.084Z,35.40
2022-12-11T21:01:14.940Z,33.23
2022-12-11T21:03:43.564Z,34.13
2022-12-11T21:06:18.807Z,29.70
2022-12-11T21:08:46.865Z,32.33
2022-12-11T21:11:15.297Z,37.90
2022-12-11T21:13:43.874Z,32.27
2022-12-11T21:16:13.769Z,25.03
2022-12-11T21:18:44.267Z,34.57
2022-12-11T21:21:12.696Z,29.53
2022-12-11T21:23:41.455Z,28.07
2022-12-11T21:26:09.967Z,35.63
2022-12-11T21:28:38.332Z,26.20
2022-12-11T21:31:08.295Z,29.20
2022-12-11T21:33:38.224Z,31.93
2022-12-11T21:36:09.213Z,31.73
2022-12-11T21:38:37.933Z,30.47
2022-12-11T21:41:10.211Z,41.20
2022-12-11T21:43:52.589Z,35.60
2022-12-11T21:46:28.474Z,35.97
2022-12-11T21:48:58.249Z,35.73
2022-12-11T21:51:31.060Z,28.93
2022-12-11T21:54:05.153Z,27.63
2022-12-11T21:56:33.737Z,38.57
2022-12-11T21:59:02.397Z,29.77
2022-12-11T22:01:33.584Z,30.33
2022-12-11T22:04:03.608Z,33.47
2022-12-11T22:06:31.792Z,32.27
2022-12-11T22:09:00.236Z,36.80
2022-12-11T22:11:30.545Z,27.90
2022-12-11T22:13:59.276Z,34.70
2022-12-11T22:16:27.779Z,31.13
2022-12-11T22:18:56.219Z,36.27
2022-12-11T22:21:25.995Z,36.87
2022-12-11T22:23:54.059Z,33.90
2022-12-11T22:26:23.607Z,34.27
2022-12-11T22:28:52.555Z,37.67
2022-12-11T22:31:22.677Z,32.93
2022-12-11T22:33:51.239Z,32.87
2022-12-11T22:36:19.981Z,31.03
2022-12-11T22:38:49.795Z,32.00
2022-12-11T22:41:22.354Z,38.00
2022-12-11T22:43:50.960Z,29.87
2022-12-11T22:46:20.215Z,35.50
2022-12-11T22:48:48.821Z,32.90
2022-12-11T22:51:17.289Z,35.03
2022-12-11T22:53:45.637Z,30.53
2022-12-11T22:56:15.824Z,30.93
2022-12-11T22:58:44.370Z,22.90
2022-12-11T23:01:13.489Z,30.47
2022-12-11T23:03:42.105Z,40.80
2022-12-11T23:06:12.689Z,28.20
2022-12-11T23:08:41.843Z,37.03
2022-12-11T23:11:17.251Z,29.07
2022-12-11T23:13:45.629Z,40.20
2022-12-11T23:16:14.201Z,31.20
2022-12-11T23:18:43.224Z,33.93
2022-12-11T23:21:11.845Z,29.90
2022-12-11T23:23:40.203Z,32.30
2022-12-11T23:26:09.386Z,30.07
2022-12-11T23:28:39.586Z,29.90
2022-12-11T23:31:08.200Z,32.50
2022-12-11T23:33:36.800Z,27.87
2022-12-11T23:36:05.328Z,28.57
2022-12-11T23:38:34.060Z,39.77
2022-12-11T23:41:03.644Z,30.07
2022-12-11T23:43:32.061Z,30.40
2022-12-11T23:46:02.080Z,30.17
2022-12-11T23:48:31.264Z,29.00
2022-12-11T23:51:00.720Z,33.57
2022-12-11T23:53:29.681Z,31.57
2022-12-11T23:55:58.126Z,30.87
2022-12-11T23:58:26.528Z,31.13
